Luck, Wisconsin
Current Conditions -  °F | °C
As of 2:15 PM on Thursday 29 Jan 2015 (Local Time) from KRZN Reporting Station
Overcast Overcast  
Wind Chill: 14°   Ceiling: 2700
Heat Index: 26°   Visibility: 10mi
Dew Point: 17°   Wind: 15mph
Humidity: 66%   Direction: 340°NNW
Pressure: 30.23"   Gusts: 23mph
Location:  45.58°N, 92.48°W
Report Text: KRZN 292015Z AUTO 34013G20KT 10SM BKN027 BKN032 OVC043 M03/M09 A3023 RMK AO2 T10311086
Loading
Personal Weather Stations






























Interactive Weather Map New forecast layout! Learn more

10-Day Weather Forecast

Advertisements
Track Severe Weather on mobile